Decoded Metar for LTFJ (SABIHA GOKCEN in TURKEY) (IATA:N/A) | Meteo·Mobile Aviation Weather
aviador You're here:

LTFJ Decoded Metar

SABIHA GOKCEN in TURKEY
Report Time2019-08-18 20:50:00
UTC Time2019-08-18 21:18:59
Flight Rules vfr VFR
Wind030° at 07 kt
W.Decomp.*RWY 06: 5.8 kt HW 3.9 kt LCW
Visibility9999 m
Phenomena:N/A
Clouds:N/A
Expected CloudBase > 2,000 ft AGL from Temp-Dew spread
CeilingNone
Temp20°C (ISA +6)
Dew Point15°C (73% RH)
AAT19.1°C
QNH1016 hPa
Density Alt1,109 ft
Elevation322 ft
Report Wrong Elevation
Raw Report
LTFJ 182050Z 03007KT CAVOK 20/15 Q1016 NOSIG=

Extra information for LTFJ:More info

Metar Taf Metar & Taf Last 4 Metars F.Rules Stats Wind Profile Meteogram Temp Stats Airport Information Weather charts Add Link Nearby VenuesMetar ALERT Operation Metar Decoded Social comments